This is the latest recevied weather packets stored in our database for station/object KE8CZD. If no packets are shown the sender has not sent any weather packets the latest 10 day(s).
| Time | Temp. | Humidity | Pressure | Rain* | Wind** | Luminosity | Snow |
|---|---|---|---|---|---|---|---|
| 1777962283 | 15° C | 74% | 996.7 hPa | 0 mm | - | - | - |
| 1777961924 | 15° C | 75% | 996.7 hPa | 0 mm | - | - | - |
| 1777961564 | 15° C | 76% | 996.9 hPa | 0 mm | - | - | - |
| 1777961203 | 15° C | 76% | 996.9 hPa | 0 mm | - | - | - |
| 1777960844 | 15° C | 76% | 996.8 hPa | 0 mm | - | - | - |
| 1777960483 | 15° C | 77% | 996.7 hPa | 0 mm | - | - | - |
| 1777960123 | 15° C | 78% | 996.5 hPa | 0 mm | - | - | - |
| 1777959764 | 15° C | 80% | 996.5 hPa | 0 mm | - | - | - |
| 1777959404 | 15° C | 81% | 996.5 hPa | 0 mm | - | - | - |
| 1777959044 | 14.44° C | 83% | 996.7 hPa | 0 mm | - | - | - |
| 1777958683 | 14.44° C | 85% | 0 hPa | 0 mm | - | - | - |
| 1777958325 | 14.44° C | 84% | 0 hPa | 0 mm | - | - | - |
| 1777957965 | 14.44° C | 84% | 0 hPa | 0 mm | - | - | - |
| 1777957245 | 15° C | 81% | 996.4 hPa | 0 mm | - | - | - |
| 1777956525 | 17.22° C | 66% | 997.3 hPa | 0 mm | - | - | - |
| 1777956164 | 18.33° C | 62% | 997 hPa | 0 mm | - | - | - |
| 1777955445 | 19.44° C | 59% | 996.7 hPa | 0 mm | - | - | - |
| 1777955086 | 19.44° C | 59% | 996.4 hPa | 0 mm | - | - | - |
| 1777954724 | 19.44° C | 59% | 996.3 hPa | 0 mm | - | - | - |
| 1777954364 | 19.44° C | 58% | 996.2 hPa | 0 mm | - | - | - |
| 1777953644 | 19.44° C | 58% | 995.9 hPa | 0 mm | - | - | - |
| 1777953285 | 18.89° C | 61% | 995.9 hPa | 0 mm | - | - | - |
| 1777952925 | 18.89° C | 61% | 995.9 hPa | 0 mm | - | - | - |
| 1777952565 | 18.89° C | 61% | 995.9 hPa | 0 mm | - | - | - |
| 1777952204 | 18.89° C | 61% | 995.8 hPa | 0 mm | - | - | - |
* Rain latest hour (hover to see other rain measurements)
** Current wind speed in m/s (hover to see current wind gust speed)